createdAt,value
2022-09-16T00:03:36.218Z,12.35
2022-09-16T00:13:42.526Z,9.32
2022-09-16T00:23:46.666Z,20.52
2022-09-16T00:33:51.844Z,11.50
2022-09-16T00:38:57.818Z,10.48
2022-09-16T00:44:24.935Z,10.05
2022-09-16T00:49:31.217Z,9.60
2022-09-16T00:54:36.245Z,9.32
2022-09-16T00:59:46.226Z,9.27
2022-09-16T01:04:56.571Z,9.25
2022-09-16T01:09:59.077Z,7.82
2022-09-16T01:15:02.730Z,9.93
2022-09-16T01:20:14.875Z,9.20
2022-09-16T01:25:41.306Z,8.63
2022-09-16T01:31:14.351Z,8.38
2022-09-16T01:36:53.589Z,9.02
2022-09-16T01:42:26.243Z,8.68
2022-09-16T01:47:28.339Z,8.95
2022-09-16T01:57:58.041Z,9.75
2022-09-16T02:03:10.862Z,9.60
2022-09-16T02:08:18.257Z,9.23
2022-09-16T02:13:35.117Z,10.13
2022-09-16T02:18:41.890Z,9.85
2022-09-16T02:23:49.502Z,10.40
2022-09-16T02:28:54.962Z,9.25
2022-09-16T02:34:02.896Z,9.75
2022-09-16T02:39:09.874Z,9.77
2022-09-16T02:44:12.333Z,9.48
2022-09-16T02:49:32.792Z,8.63
2022-09-16T02:55:01.243Z,9.73
2022-09-16T03:00:04.782Z,9.43
2022-09-16T03:05:07.284Z,9.55
2022-09-16T03:10:12.213Z,9.75
2022-09-16T03:15:46.969Z,9.50
2022-09-16T03:20:59.036Z,9.55
2022-09-16T03:31:44.793Z,9.43
2022-09-16T03:36:52.795Z,8.68
2022-09-16T03:41:55.682Z,9.50
2022-09-16T03:46:57.722Z,10.48
2022-09-16T03:57:02.596Z,9.93
2022-09-16T04:02:04.736Z,9.52
2022-09-16T04:12:08.998Z,8.35
2022-09-16T04:17:11.005Z,8.70
2022-09-16T04:27:14.953Z,8.93
2022-09-16T04:37:19.077Z,9.48
2022-09-16T04:42:21.110Z,9.50
2022-09-16T04:52:25.092Z,8.82
2022-09-16T04:57:31.564Z,9.07
2022-09-16T05:02:33.665Z,9.80
2022-09-16T05:07:35.770Z,8.98
2022-09-16T05:22:53.253Z,9.23
2022-09-16T05:32:57.346Z,9.07
2022-09-16T05:37:59.808Z,8.85
2022-09-16T05:43:01.972Z,10.18
2022-09-16T05:48:04.091Z,9.77
2022-09-16T05:53:06.133Z,10.07
2022-09-16T06:03:11.048Z,9.50
2022-09-16T06:08:13.070Z,9.48
2022-09-16T06:18:19.071Z,9.57
2022-09-16T06:23:22.216Z,9.32
2022-09-16T06:28:24.279Z,8.90
2022-09-16T06:38:28.199Z,9.77
2022-09-16T06:53:36.824Z,10.60
2022-09-16T06:58:42.519Z,10.32
2022-09-16T07:03:47.740Z,11.50
2022-09-16T07:08:50.378Z,10.98
2022-09-16T07:13:52.497Z,10.25
2022-09-16T07:19:00.709Z,10.45
2022-09-16T07:24:04.007Z,10.65
2022-09-16T07:29:07.921Z,11.43
2022-09-16T07:34:12.114Z,10.73
2022-09-16T07:39:16.559Z,10.27
2022-09-16T07:44:20.579Z,10.30
2022-09-16T07:49:22.636Z,11.57
2022-09-16T07:59:26.720Z,11.40
2022-09-16T08:04:28.814Z,10.73
2022-09-16T08:09:41.100Z,11.48
2022-09-16T08:14:44.619Z,10.18
2022-09-16T08:19:46.688Z,10.27
2022-09-16T08:24:48.808Z,11.05
2022-09-16T08:29:50.840Z,10.63
2022-09-16T08:34:53.482Z,11.18
2022-09-16T08:39:55.624Z,10.15
2022-09-16T08:45:16.143Z,10.13
2022-09-16T08:50:31.865Z,10.43
2022-09-16T08:55:39.869Z,10.52
2022-09-16T09:00:47.454Z,10.77
2022-09-16T09:05:58.825Z,7.78
2022-09-16T09:11:06.570Z,8.70
2022-09-16T09:16:14.648Z,8.63
2022-09-16T09:21:28.899Z,7.45
2022-09-16T09:26:41.029Z,7.75
2022-09-16T09:32:11.097Z,8.20
2022-09-16T09:37:38.499Z,7.82
2022-09-16T09:42:59.543Z,7.35
2022-09-16T09:48:19.177Z,7.83
2022-09-16T09:53:28.797Z,7.22
2022-09-16T09:58:41.331Z,7.50
2022-09-16T10:03:45.376Z,7.30
2022-09-16T10:08:52.251Z,7.50
2022-09-16T10:14:00.106Z,7.40
2022-09-16T10:19:09.043Z,8.65
2022-09-16T10:24:41.062Z,7.93
2022-09-16T10:39:57.284Z,5.13
2022-09-16T10:45:14.386Z,5.35
2022-09-16T10:50:18.999Z,6.20
2022-09-16T10:55:35.381Z,5.88
2022-09-16T11:00:49.027Z,5.75
2022-09-16T11:06:35.723Z,4.88
2022-09-16T11:11:59.421Z,5.43
2022-09-16T11:17:49.727Z,6.00
2022-09-16T11:23:29.796Z,5.53
2022-09-16T11:29:07.231Z,4.95
2022-09-16T11:34:25.233Z,5.20
2022-09-16T11:39:41.429Z,6.20
2022-09-16T11:44:44.400Z,6.07
2022-09-16T11:55:50.760Z,5.68
2022-09-16T12:00:56.329Z,5.50
2022-09-16T12:06:11.355Z,5.72
2022-09-16T12:11:16.276Z,6.25
2022-09-16T12:16:28.161Z,7.43
2022-09-16T12:21:36.144Z,6.28
2022-09-16T12:26:43.449Z,5.50
2022-09-16T12:32:15.993Z,6.18
2022-09-16T12:37:42.868Z,6.65
2022-09-16T12:43:19.742Z,6.25
2022-09-16T12:48:28.771Z,6.95
2022-09-16T12:53:49.719Z,6.40
2022-09-16T12:58:51.769Z,11.02
2022-09-16T13:04:13.786Z,7.60
2022-09-16T13:09:24.566Z,8.85
2022-09-16T13:14:33.585Z,8.18
2022-09-16T13:19:53.939Z,8.70
2022-09-16T13:25:09.915Z,9.13
2022-09-16T13:30:15.477Z,9.95
2022-09-16T13:35:21.009Z,10.48
2022-09-16T13:40:26.262Z,9.38
2022-09-16T13:45:43.840Z,8.68
2022-09-16T13:50:56.379Z,9.30
2022-09-16T13:56:31.732Z,9.70
2022-09-16T14:02:06.248Z,12.20
2022-09-16T14:07:08.420Z,9.77
2022-09-16T14:12:17.147Z,9.35
2022-09-16T14:17:41.235Z,8.35
2022-09-16T14:22:44.720Z,9.23
2022-09-16T14:27:47.068Z,8.73
2022-09-16T14:32:49.922Z,6.30
2022-09-16T14:37:57.052Z,5.63
2022-09-16T14:43:04.699Z,6.03
2022-09-16T14:48:10.048Z,6.47
2022-09-16T14:53:36.327Z,5.75
2022-09-16T14:58:40.006Z,7.03
2022-09-16T15:03:42.196Z,7.15
2022-09-16T15:08:57.350Z,6.68
2022-09-16T15:14:00.080Z,6.88
2022-09-16T15:19:04.919Z,7.25
2022-09-16T15:24:18.192Z,8.07
2022-09-16T15:29:23.602Z,8.30
2022-09-16T15:34:26.728Z,8.60
2022-09-16T15:39:39.417Z,9.25
2022-09-16T15:44:56.642Z,9.90
2022-09-16T15:49:59.310Z,10.43
2022-09-16T15:55:05.682Z,10.15
2022-09-16T16:00:16.119Z,11.82
2022-09-16T16:05:24.808Z,12.05
2022-09-16T16:10:32.694Z,10.90
2022-09-16T16:15:37.038Z,11.85
2022-09-16T16:20:40.646Z,10.95
2022-09-16T16:25:43.826Z,9.75
2022-09-16T16:30:46.552Z,10.95
2022-09-16T16:35:48.968Z,10.10
2022-09-16T16:40:52.062Z,9.52
2022-09-16T16:45:56.039Z,9.23
2022-09-16T16:51:00.838Z,13.02
2022-09-16T16:56:15.131Z,10.32
2022-09-16T17:01:20.335Z,11.07
2022-09-16T17:06:22.931Z,12.30
2022-09-16T17:11:26.606Z,12.27
2022-09-16T17:16:30.935Z,13.85
2022-09-16T17:21:34.698Z,13.60
2022-09-16T17:26:37.032Z,12.68
2022-09-16T17:31:40.155Z,12.27
2022-09-16T17:36:45.240Z,11.70
2022-09-16T17:41:49.127Z,11.77
2022-09-16T17:46:51.575Z,11.35
2022-09-16T17:51:54.051Z,11.45
2022-09-16T17:56:56.406Z,11.50
2022-09-16T18:01:59.457Z,10.20
2022-09-16T18:07:02.001Z,10.80
2022-09-16T18:12:04.463Z,10.57
2022-09-16T18:17:06.677Z,10.95
2022-09-16T18:22:09.229Z,10.95
2022-09-16T18:27:12.135Z,11.07
2022-09-16T18:32:14.790Z,11.00
2022-09-16T18:37:17.076Z,10.75
2022-09-16T18:42:19.273Z,12.18
2022-09-16T18:47:21.413Z,13.25
2022-09-16T18:52:23.586Z,12.73
2022-09-16T18:57:26.253Z,22.27
2022-09-16T19:02:28.741Z,13.82
2022-09-16T19:07:30.962Z,14.05
2022-09-16T19:12:38.463Z,13.65
2022-09-16T19:17:41.444Z,13.57
2022-09-16T19:22:44.141Z,13.07
2022-09-16T19:27:46.439Z,14.10
2022-09-16T19:32:50.850Z,13.82
2022-09-16T19:37:53.066Z,14.02
2022-09-16T19:42:55.471Z,13.75
2022-09-16T19:47:57.586Z,14.15
2022-09-16T19:53:00.251Z,13.27
2022-09-16T19:58:02.831Z,14.63
2022-09-16T20:03:05.181Z,15.30
2022-09-16T20:08:07.501Z,14.85
2022-09-16T20:13:09.680Z,14.65
2022-09-16T20:23:13.692Z,12.75
2022-09-16T20:33:17.678Z,13.48
2022-09-16T20:43:21.745Z,14.38
2022-09-16T20:53:25.896Z,14.30
2022-09-16T21:03:30.295Z,13.10
2022-09-16T21:13:36.519Z,13.38
2022-09-16T21:23:41.868Z,12.15
2022-09-16T21:28:45.109Z,13.23
2022-09-16T21:33:49.785Z,10.65
2022-09-16T21:38:52.142Z,12.73
2022-09-16T21:43:55.964Z,12.85
2022-09-16T21:49:01.261Z,14.20
2022-09-16T21:54:08.844Z,13.32
2022-09-16T21:59:11.451Z,14.20
2022-09-16T22:04:19.087Z,15.27
2022-09-16T22:09:21.683Z,16.08
2022-09-16T22:14:24.699Z,17.52
2022-09-16T22:24:29.740Z,17.38
2022-09-16T22:34:35.426Z,16.00
2022-09-16T22:39:37.508Z,12.32
2022-09-16T22:49:41.507Z,9.35
2022-09-16T22:59:45.541Z,9.05
2022-09-16T23:09:49.642Z,8.60
2022-09-16T23:14:51.715Z,9.23
2022-09-16T23:24:56.710Z,8.18
2022-09-16T23:29:58.779Z,8.52
2022-09-16T23:40:04.179Z,8.65
2022-09-16T23:45:06.864Z,9.35
2022-09-16T23:50:11.442Z,8.82
2022-09-16T23:55:13.566Z,8.93
